createdAt,value
2022-10-22T00:00:19.447Z,1004.69
2022-10-22T00:05:20.247Z,1005.00
2022-10-22T00:10:20.987Z,1004.98
2022-10-22T00:15:21.710Z,1004.97
2022-10-22T00:20:22.441Z,1005.01
2022-10-22T00:25:23.167Z,1005.03
2022-10-22T00:30:23.949Z,1004.94
2022-10-22T00:35:24.710Z,1004.77
2022-10-22T00:40:25.426Z,1004.80
2022-10-22T00:45:26.166Z,1004.71
2022-10-22T00:50:26.910Z,1004.66
2022-10-22T00:55:27.632Z,1004.71
2022-10-22T01:00:28.637Z,1004.82
2022-10-22T01:05:28.956Z,1004.88
2022-10-22T01:10:29.852Z,1005.01
2022-10-22T01:15:30.656Z,1004.96
2022-10-22T01:20:31.353Z,1005.06
2022-10-22T01:25:32.097Z,1004.93
2022-10-22T01:30:32.820Z,1004.92
2022-10-22T01:40:34.243Z,1004.90
2022-10-22T01:45:34.986Z,1004.90
2022-10-22T01:50:35.730Z,1004.83
2022-10-22T01:55:36.494Z,1004.90
2022-10-22T02:00:37.480Z,1004.90
2022-10-22T02:05:37.742Z,1004.85
2022-10-22T02:10:38.464Z,1004.95
2022-10-22T02:15:39.182Z,1005.08
2022-10-22T02:20:39.959Z,1005.04
2022-10-22T02:25:40.677Z,1004.95
2022-10-22T02:30:41.393Z,1004.88
2022-10-22T02:35:42.161Z,1004.90
2022-10-22T02:40:42.882Z,1004.88
2022-10-22T02:45:43.598Z,1004.93
2022-10-22T02:50:44.374Z,1004.95
2022-10-22T02:55:45.127Z,1004.96
2022-10-22T03:00:45.895Z,1005.07
2022-10-22T03:05:46.637Z,1005.09
2022-10-22T03:10:47.352Z,1004.98
2022-10-22T03:15:48.252Z,1004.89
2022-10-22T03:20:48.952Z,1004.92
2022-10-22T03:25:49.793Z,1004.85
2022-10-22T03:30:50.558Z,1004.80
2022-10-22T03:35:51.265Z,1004.86
2022-10-22T03:40:52.005Z,1004.90
2022-10-22T03:45:52.726Z,1004.87
2022-10-22T03:50:53.459Z,1004.91
2022-10-22T03:55:54.221Z,1004.95
2022-10-22T04:00:54.988Z,1005.02
2022-10-22T04:05:55.681Z,1005.03
2022-10-22T04:10:56.486Z,1005.10
2022-10-22T04:15:57.238Z,1005.17
2022-10-22T04:20:57.928Z,1005.22
2022-10-22T04:25:58.752Z,1005.30
2022-10-22T04:30:59.521Z,1005.38
2022-10-22T04:36:00.234Z,1005.38
2022-10-22T04:41:01.082Z,1005.35
2022-10-22T04:46:01.870Z,1005.31
2022-10-22T04:51:02.594Z,1005.26
2022-10-22T04:56:03.452Z,1005.23
2022-10-22T05:01:04.256Z,1005.15
2022-10-22T05:06:04.983Z,1005.24
2022-10-22T05:11:05.745Z,1005.23
2022-10-22T05:16:06.441Z,1005.20
2022-10-22T05:21:07.817Z,1005.27
2022-10-22T05:26:07.951Z,1005.33
2022-10-22T05:31:08.658Z,1005.36
2022-10-22T05:36:09.360Z,1005.35
2022-10-22T05:41:18.061Z,1005.36
2022-10-22T05:46:10.826Z,1005.37
2022-10-22T05:51:11.526Z,1005.49
2022-10-22T05:56:12.302Z,1005.55
2022-10-22T06:01:12.874Z,1005.53
2022-10-22T06:06:13.527Z,1005.57
2022-10-22T06:11:14.256Z,1005.59
2022-10-22T06:16:14.941Z,1005.64
2022-10-22T06:21:15.702Z,1005.64
2022-10-22T06:26:16.423Z,1005.73
2022-10-22T06:31:17.117Z,1005.78
2022-10-22T06:36:18.131Z,1005.82
2022-10-22T06:41:18.306Z,1005.85
2022-10-22T06:46:20.162Z,1005.93
2022-10-22T06:51:19.628Z,1005.98
2022-10-22T06:56:20.279Z,1005.96
2022-10-22T07:01:21.111Z,1005.99
2022-10-22T07:06:21.813Z,1006.01
2022-10-22T07:11:22.473Z,1006.08
2022-10-22T07:16:24.851Z,1006.10
2022-10-22T07:21:24.198Z,1006.18
2022-10-22T07:26:24.819Z,1006.25
2022-10-22T07:31:25.606Z,1006.30
2022-10-22T07:36:26.347Z,1006.31
2022-10-22T07:41:26.990Z,1006.47
2022-10-22T07:46:27.633Z,1006.57
2022-10-22T07:51:28.310Z,1006.58
2022-10-22T07:56:28.954Z,1006.67
2022-10-22T08:01:29.702Z,1006.68
2022-10-22T08:06:30.378Z,1006.76
2022-10-22T08:11:31.159Z,1006.77
2022-10-22T08:16:31.901Z,1006.78
2022-10-22T08:21:32.883Z,1006.77
2022-10-22T08:26:33.641Z,1006.77
2022-10-22T08:31:34.260Z,1006.81
2022-10-22T08:36:35.094Z,1006.88
2022-10-22T08:41:35.862Z,1007.00
2022-10-22T08:46:36.497Z,1007.05
2022-10-22T08:51:37.324Z,1007.06
2022-10-22T08:56:38.149Z,1007.08
2022-10-22T09:01:38.781Z,1007.16
2022-10-22T09:06:39.552Z,1007.23
2022-10-22T09:11:40.192Z,1007.24
2022-10-22T09:16:40.833Z,1007.21
2022-10-22T09:21:41.585Z,1007.27
2022-10-22T09:26:42.324Z,1007.28
2022-10-22T09:31:43.099Z,1007.31
2022-10-22T09:36:43.970Z,1007.35
2022-10-22T09:41:44.607Z,1007.40
2022-10-22T09:46:45.249Z,1007.40
2022-10-22T09:51:45.918Z,1007.43
2022-10-22T09:56:46.664Z,1007.48
2022-10-22T10:01:47.597Z,1007.54
2022-10-22T10:06:48.309Z,1007.55
2022-10-22T10:11:49.207Z,1007.55
2022-10-22T10:16:50.001Z,1007.53
2022-10-22T10:21:50.656Z,1007.59
2022-10-22T10:26:51.356Z,1007.58
2022-10-22T10:31:51.994Z,1007.59
2022-10-22T10:36:52.812Z,1007.55
2022-10-22T10:41:53.514Z,1007.53
2022-10-22T10:46:54.131Z,1007.54
2022-10-22T10:51:54.881Z,1007.54
2022-10-22T10:56:55.691Z,1007.57
2022-10-22T11:01:56.381Z,1007.60
2022-10-22T11:07:10.676Z,1007.60
2022-10-22T11:11:58.687Z,1007.59
2022-10-22T11:16:58.315Z,1007.53
2022-10-22T11:21:59.111Z,1007.52
2022-10-22T11:26:59.915Z,1007.57
2022-10-22T11:32:00.761Z,1007.58
2022-10-22T11:37:08.394Z,1007.59
2022-10-22T11:42:02.037Z,1007.55
2022-10-22T11:47:02.712Z,1007.59
2022-10-22T11:52:05.080Z,1007.59
2022-10-22T11:57:04.293Z,1007.57
2022-10-22T12:02:04.963Z,1007.59
2022-10-22T12:07:05.650Z,1007.60
2022-10-22T12:12:06.307Z,1007.61
2022-10-22T12:17:07.002Z,1007.60
2022-10-22T12:22:07.647Z,1007.63
2022-10-22T12:27:09.272Z,1007.63
2022-10-22T12:32:09.307Z,1007.62
2022-10-22T12:37:09.929Z,1007.61
2022-10-22T12:42:10.656Z,1007.63
2022-10-22T12:47:11.355Z,1007.63
2022-10-22T12:52:14.023Z,1007.61
2022-10-22T12:57:12.872Z,1007.59
2022-10-22T13:02:13.491Z,1007.59
2022-10-22T13:07:18.252Z,1007.56
2022-10-22T13:12:15.719Z,1007.55
2022-10-22T13:17:15.388Z,1007.63
2022-10-22T13:22:16.094Z,1007.71
2022-10-22T13:27:16.764Z,1007.73
2022-10-22T13:32:17.533Z,1007.75
2022-10-22T13:37:18.184Z,1007.71
2022-10-22T13:42:18.833Z,1007.71
2022-10-22T13:47:19.525Z,1007.75
2022-10-22T13:52:20.164Z,1007.76
2022-10-22T13:57:20.844Z,1007.79
2022-10-22T14:02:21.561Z,1007.88
2022-10-22T14:07:22.261Z,1007.87
2022-10-22T14:12:22.907Z,1007.90
2022-10-22T14:17:23.628Z,1007.92
2022-10-22T14:22:24.292Z,1007.96
2022-10-22T14:27:24.967Z,1007.97
2022-10-22T14:32:25.709Z,1008.03
2022-10-22T14:37:26.360Z,1008.02
2022-10-22T14:42:27.036Z,1008.04
2022-10-22T14:47:27.795Z,1008.05
2022-10-22T14:52:28.423Z,1008.08
2022-10-22T14:57:29.103Z,1008.12
2022-10-22T15:02:29.775Z,1008.16
2022-10-22T15:07:30.432Z,1008.17
2022-10-22T15:12:31.127Z,1008.21
2022-10-22T15:17:31.829Z,1008.22
2022-10-22T15:22:32.530Z,1008.23
2022-10-22T15:27:33.197Z,1008.26
2022-10-22T15:32:33.946Z,1008.34
2022-10-22T15:37:34.653Z,1008.40
2022-10-22T15:42:35.387Z,1008.40
2022-10-22T15:47:36.033Z,1008.41
2022-10-22T15:52:36.711Z,1008.45
2022-10-22T15:57:37.390Z,1008.43
2022-10-22T16:02:38.062Z,1008.45
2022-10-22T16:07:38.983Z,1008.45
2022-10-22T16:12:39.574Z,1008.45
2022-10-22T16:17:39.912Z,1008.50
2022-10-22T16:22:40.908Z,1008.57
2022-10-22T16:27:41.215Z,1008.60
2022-10-22T16:32:42.248Z,1008.64
2022-10-22T16:37:42.931Z,1008.69
2022-10-22T16:42:43.289Z,1008.71
2022-10-22T16:47:44.273Z,1008.73
2022-10-22T16:52:44.515Z,1008.81
2022-10-22T16:57:45.275Z,1008.86
2022-10-22T17:02:46.055Z,1008.91
2022-10-22T17:07:46.730Z,1008.94
2022-10-22T17:12:47.483Z,1009.02
2022-10-22T17:17:48.198Z,1009.10
2022-10-22T17:22:48.940Z,1009.18
2022-10-22T17:27:49.737Z,1009.22
2022-10-22T17:32:50.529Z,1009.25
2022-10-22T17:37:51.245Z,1009.28
2022-10-22T17:42:52.061Z,1009.37
2022-10-22T17:47:52.760Z,1009.41
2022-10-22T17:52:53.482Z,1009.45
2022-10-22T17:57:54.216Z,1009.50
2022-10-22T18:02:54.934Z,1009.50
2022-10-22T18:07:55.704Z,1009.54
2022-10-22T18:12:56.449Z,1009.57
2022-10-22T18:17:57.182Z,1009.60
2022-10-22T18:22:57.927Z,1009.59
2022-10-22T18:27:58.709Z,1009.59
2022-10-22T18:32:59.417Z,1009.62
2022-10-22T18:38:00.165Z,1009.61
2022-10-22T18:43:00.880Z,1009.60
2022-10-22T18:48:01.613Z,1009.60
2022-10-22T18:53:02.408Z,1009.62
2022-10-22T18:58:10.198Z,1009.59
2022-10-22T19:03:03.981Z,1009.59
2022-10-22T19:08:04.769Z,1009.66
2022-10-22T19:13:05.471Z,1009.68
2022-10-22T19:18:06.315Z,1009.72
2022-10-22T19:23:07.177Z,1009.75
2022-10-22T19:28:08.010Z,1009.78
2022-10-22T19:33:08.725Z,1009.81
2022-10-22T19:38:09.589Z,1009.83
2022-10-22T19:43:10.424Z,1009.91
2022-10-22T19:48:11.229Z,1009.96
2022-10-22T19:53:12.120Z,1010.09
2022-10-22T19:58:13.034Z,1010.10
2022-10-22T20:03:13.737Z,1010.17
2022-10-22T20:08:14.410Z,1010.15
2022-10-22T20:13:15.203Z,1010.22
2022-10-22T20:18:15.991Z,1010.27
2022-10-22T20:23:16.654Z,1010.35
2022-10-22T20:28:17.526Z,1010.38
2022-10-22T20:33:18.350Z,1010.38
2022-10-22T20:38:19.050Z,1010.46
2022-10-22T20:43:19.943Z,1010.52
2022-10-22T20:48:20.737Z,1010.57
2022-10-22T20:53:21.419Z,1010.66
2022-10-22T20:58:24.590Z,1010.73
2022-10-22T21:03:23.128Z,1010.75
2022-10-22T21:08:23.869Z,1010.75
2022-10-22T21:13:24.607Z,1010.78
2022-10-22T21:18:25.356Z,1010.80
2022-10-22T21:23:26.101Z,1010.84
2022-10-22T21:28:26.851Z,1010.83
2022-10-22T21:33:27.591Z,1010.85
2022-10-22T21:38:28.356Z,1010.84
2022-10-22T21:43:29.090Z,1010.89
2022-10-22T21:48:29.788Z,1010.94
2022-10-22T21:53:30.549Z,1011.03
2022-10-22T21:58:31.236Z,1011.04
2022-10-22T22:03:32.025Z,1011.04
2022-10-22T22:08:32.764Z,1011.08
2022-10-22T22:13:33.489Z,1011.05
2022-10-22T22:18:34.320Z,1010.97
2022-10-22T22:23:35.036Z,1010.90
2022-10-22T22:28:35.805Z,1010.92
2022-10-22T22:33:36.537Z,1010.94
2022-10-22T22:38:37.242Z,1010.88
2022-10-22T22:43:38.000Z,1010.85
2022-10-22T22:48:38.749Z,1010.82
2022-10-22T22:53:39.438Z,1010.84
2022-10-22T22:58:40.306Z,1010.86
2022-10-22T23:03:41.036Z,1010.85
2022-10-22T23:08:41.800Z,1010.89
2022-10-22T23:13:42.583Z,1010.89
2022-10-22T23:18:43.401Z,1010.92
2022-10-22T23:23:44.101Z,1010.97
2022-10-22T23:28:44.938Z,1011.02
2022-10-22T23:33:45.771Z,1011.02
2022-10-22T23:38:46.447Z,1011.00
2022-10-22T23:43:47.360Z,1010.99
2022-10-22T23:48:48.216Z,1011.02
2022-10-22T23:53:49.015Z,1011.02
2022-10-22T23:58:49.754Z,1010.98
